createdAt,value
2023-02-17T00:02:27.903Z,45.90
2023-02-17T00:04:56.494Z,45.50
2023-02-17T00:07:24.960Z,45.20
2023-02-17T00:09:53.462Z,47.10
2023-02-17T00:12:25.955Z,44.60
2023-02-17T00:14:54.562Z,48.20
2023-02-17T00:17:22.954Z,43.40
2023-02-17T00:19:53.917Z,45.40
2023-02-17T00:22:22.203Z,44.70
2023-02-17T00:24:50.824Z,40.80
2023-02-17T00:27:20.056Z,44.00
2023-02-17T00:29:48.601Z,43.20
2023-02-17T00:32:17.277Z,42.90
2023-02-17T00:34:46.188Z,40.70
2023-02-17T00:37:15.005Z,42.60
2023-02-17T00:39:44.012Z,41.80
2023-02-17T00:42:12.403Z,39.40
2023-02-17T00:44:41.032Z,43.20
2023-02-17T00:47:09.704Z,40.80
2023-02-17T00:49:38.226Z,43.10
2023-02-17T00:52:06.928Z,40.10
2023-02-17T00:54:36.994Z,40.10
2023-02-17T00:57:05.425Z,40.30
2023-02-17T00:59:33.902Z,38.70
2023-02-17T01:02:03.291Z,38.20
2023-02-17T01:04:31.946Z,39.70
2023-02-17T01:07:00.510Z,40.40
2023-02-17T01:09:29.061Z,39.90
2023-02-17T01:11:57.404Z,43.40
2023-02-17T01:14:25.764Z,38.80
2023-02-17T01:16:54.055Z,41.20
2023-02-17T01:19:23.199Z,40.00
2023-02-17T01:21:56.965Z,42.30
2023-02-17T01:24:25.798Z,38.80
2023-02-17T01:26:54.489Z,37.40
2023-02-17T01:29:23.004Z,40.60
2023-02-17T01:31:52.294Z,39.00
2023-02-17T01:34:20.527Z,39.00
2023-02-17T01:36:49.214Z,40.30
2023-02-17T01:39:17.924Z,36.40
2023-02-17T01:41:47.149Z,42.70
2023-02-17T01:44:23.597Z,41.50
2023-02-17T01:46:54.250Z,40.00
2023-02-17T01:49:34.810Z,39.80
2023-02-17T01:52:19.526Z,37.80
2023-02-17T01:54:49.176Z,39.20
2023-02-17T01:57:22.019Z,39.90
2023-02-17T01:59:50.878Z,39.70
2023-02-17T02:02:19.695Z,38.50
2023-02-17T02:04:51.681Z,42.00
2023-02-17T02:07:32.127Z,44.00
2023-02-17T02:10:01.078Z,38.00
2023-02-17T02:12:34.202Z,42.20
2023-02-17T02:15:08.191Z,42.00
2023-02-17T02:17:36.542Z,42.50
2023-02-17T02:20:50.984Z,43.50
2023-02-17T02:23:34.632Z,39.50
2023-02-17T02:26:19.277Z,42.00
2023-02-17T02:28:53.763Z,38.70
2023-02-17T02:31:31.273Z,41.80
2023-02-17T02:34:15.053Z,38.80
2023-02-17T02:37:24.113Z,38.10
2023-02-17T02:39:55.806Z,35.40
2023-02-17T02:42:26.043Z,36.00
2023-02-17T02:44:54.583Z,38.30
2023-02-17T02:47:32.154Z,34.20
2023-02-17T02:50:00.732Z,37.40
2023-02-17T02:52:49.010Z,34.10
2023-02-17T02:55:34.593Z,37.00
2023-02-17T02:58:23.655Z,36.50
2023-02-17T03:01:18.849Z,37.10
2023-02-17T03:04:02.691Z,35.00
2023-02-17T03:06:44.382Z,33.60
2023-02-17T03:09:18.413Z,36.20
2023-02-17T03:11:50.704Z,34.60
2023-02-17T03:14:23.342Z,33.80
2023-02-17T03:16:52.598Z,34.60
2023-02-17T03:19:25.607Z,34.10
2023-02-17T03:22:10.410Z,36.20
2023-02-17T03:24:39.033Z,37.90
2023-02-17T03:27:07.520Z,33.90
2023-02-17T03:29:35.866Z,33.80
2023-02-17T03:32:04.774Z,36.60
2023-02-17T03:34:33.279Z,31.80
2023-02-17T03:37:02.352Z,33.20
2023-02-17T03:39:30.536Z,32.20
2023-02-17T03:41:58.678Z,31.20
2023-02-17T03:44:27.072Z,31.10
2023-02-17T03:46:55.603Z,32.10
2023-02-17T03:49:24.245Z,34.40
2023-02-17T03:51:55.927Z,35.40
2023-02-17T03:54:29.031Z,36.90
2023-02-17T03:56:59.291Z,32.70
2023-02-17T03:59:28.192Z,33.20
2023-02-17T04:01:56.876Z,32.10
2023-02-17T04:04:27.537Z,32.80
2023-02-17T04:06:55.774Z,34.10
2023-02-17T04:09:23.738Z,36.70
2023-02-17T04:11:51.839Z,35.30
2023-02-17T04:14:20.089Z,31.70
2023-02-17T04:16:49.548Z,33.10
2023-02-17T04:19:19.276Z,34.90
2023-02-17T04:21:49.492Z,32.40
2023-02-17T04:24:18.111Z,35.50
2023-02-17T04:26:46.217Z,30.00
2023-02-17T04:29:14.677Z,31.30
2023-02-17T04:31:43.101Z,32.20
2023-02-17T04:34:11.905Z,32.10
2023-02-17T04:36:40.211Z,32.40
2023-02-17T04:39:08.759Z,32.60
2023-02-17T04:41:37.999Z,33.00
2023-02-17T04:44:06.846Z,32.80
2023-02-17T04:46:35.473Z,29.80
2023-02-17T04:49:04.516Z,30.20
2023-02-17T04:51:32.852Z,32.80
2023-02-17T04:54:01.425Z,33.50
2023-02-17T04:56:29.876Z,32.30
2023-02-17T04:58:59.842Z,31.00
2023-02-17T05:01:28.324Z,29.00
2023-02-17T05:03:56.837Z,28.10
2023-02-17T05:06:25.016Z,30.50
2023-02-17T05:08:54.569Z,32.40
2023-02-17T05:11:22.987Z,28.40
2023-02-17T05:13:51.314Z,30.30
2023-02-17T05:16:20.289Z,30.20
2023-02-17T05:18:51.402Z,31.10
2023-02-17T05:21:22.271Z,30.00
2023-02-17T05:23:50.398Z,28.40
2023-02-17T05:26:19.082Z,31.40
2023-02-17T05:28:47.884Z,32.30
2023-02-17T05:31:16.899Z,31.70
2023-02-17T05:33:45.369Z,27.80
2023-02-17T05:36:14.104Z,29.50
2023-02-17T05:38:45.904Z,30.10
2023-02-17T05:41:14.412Z,32.00
2023-02-17T05:43:42.681Z,28.20
2023-02-17T05:46:11.274Z,28.70
2023-02-17T05:48:41.021Z,30.60
2023-02-17T05:51:09.739Z,30.20
2023-02-17T05:53:38.332Z,31.50
2023-02-17T05:56:07.441Z,28.80
2023-02-17T05:58:36.021Z,29.50
2023-02-17T06:01:09.397Z,33.40
2023-02-17T06:03:38.326Z,31.30
2023-02-17T06:06:07.877Z,28.90
2023-02-17T06:08:37.213Z,28.30
2023-02-17T06:11:05.418Z,29.30
2023-02-17T06:13:34.094Z,26.90
2023-02-17T06:16:02.716Z,32.00
2023-02-17T06:18:31.184Z,30.80
2023-02-17T06:20:59.873Z,28.80
2023-02-17T06:23:28.652Z,28.90
2023-02-17T06:25:57.408Z,29.70
2023-02-17T06:28:26.206Z,32.00
2023-02-17T06:30:54.820Z,29.50
2023-02-17T06:33:23.220Z,28.90
2023-02-17T06:35:52.327Z,29.30
2023-02-17T06:38:21.084Z,32.50
2023-02-17T06:40:49.358Z,29.50
2023-02-17T06:43:18.236Z,30.10
2023-02-17T06:45:46.784Z,28.80
2023-02-17T06:48:15.308Z,28.10
2023-02-17T06:50:51.151Z,30.20
2023-02-17T06:53:19.335Z,29.80
2023-02-17T06:55:47.698Z,32.70
2023-02-17T06:58:15.918Z,27.90
2023-02-17T07:00:44.211Z,31.40
2023-02-17T07:03:12.891Z,29.30
2023-02-17T07:05:41.476Z,32.20
2023-02-17T07:08:09.778Z,28.40
2023-02-17T07:10:39.323Z,30.50
2023-02-17T07:13:07.636Z,32.00
2023-02-17T07:15:36.049Z,30.70
2023-02-17T07:18:05.180Z,31.90
2023-02-17T07:20:34.268Z,32.70
2023-02-17T07:23:02.646Z,29.00
2023-02-17T07:25:31.444Z,30.50
2023-02-17T07:28:05.904Z,32.10
2023-02-17T07:30:38.717Z,31.70
2023-02-17T07:33:07.869Z,27.70
2023-02-17T07:35:42.300Z,28.00
2023-02-17T07:38:11.762Z,35.10
2023-02-17T07:40:40.273Z,31.10
2023-02-17T07:43:08.663Z,30.30
2023-02-17T07:45:37.221Z,33.00
2023-02-17T07:48:06.387Z,32.60
2023-02-17T07:50:35.000Z,33.00
2023-02-17T07:53:03.764Z,30.80
2023-02-17T07:55:33.116Z,31.40
2023-02-17T07:58:01.512Z,33.00
2023-02-17T08:00:29.879Z,33.20
2023-02-17T08:02:58.514Z,33.30
2023-02-17T08:05:27.413Z,34.10
2023-02-17T08:08:14.269Z,33.00
2023-02-17T08:11:01.420Z,33.00
2023-02-17T08:13:31.099Z,32.10
2023-02-17T08:15:59.669Z,32.50
2023-02-17T08:18:29.104Z,33.50
2023-02-17T08:20:59.097Z,31.10
2023-02-17T08:23:28.197Z,32.40
2023-02-17T08:25:59.925Z,31.20
2023-02-17T08:28:28.186Z,34.20
2023-02-17T08:30:56.453Z,33.60
2023-02-17T08:44:51.870Z,31.60
2023-02-17T08:47:20.570Z,36.20
2023-02-17T08:49:50.534Z,36.50
2023-02-17T08:52:19.911Z,31.70
2023-02-17T08:54:50.972Z,34.40
2023-02-17T08:57:22.205Z,34.20
2023-02-17T08:59:51.094Z,33.60
2023-02-17T09:02:20.307Z,32.50
2023-02-17T09:04:53.521Z,34.30
2023-02-17T09:07:24.762Z,33.70
2023-02-17T09:09:53.148Z,34.50
2023-02-17T09:12:21.249Z,32.90
2023-02-17T09:14:49.456Z,32.80
2023-02-17T09:17:18.132Z,34.30
2023-02-17T09:19:50.094Z,33.50
2023-02-17T09:22:31.661Z,32.30
2023-02-17T09:25:03.079Z,34.50
2023-02-17T09:27:31.954Z,35.10
2023-02-17T09:30:01.850Z,36.10
2023-02-17T09:32:31.274Z,36.30
2023-02-17T09:35:01.889Z,36.30
2023-02-17T09:37:30.183Z,32.20
2023-02-17T09:39:58.802Z,37.50
2023-02-17T09:42:29.111Z,32.90
2023-02-17T09:45:14.591Z,34.20
2023-02-17T09:47:51.946Z,34.50
2023-02-17T09:50:25.804Z,35.10
2023-02-17T09:53:04.570Z,34.70
2023-02-17T09:55:56.051Z,34.50
2023-02-17T09:58:56.154Z,33.40
2023-02-17T10:01:32.196Z,36.20
2023-02-17T10:04:19.511Z,33.50
2023-02-17T10:06:56.600Z,36.70
2023-02-17T10:09:29.076Z,32.20
2023-02-17T10:12:10.287Z,33.20
2023-02-17T10:15:01.886Z,31.60
2023-02-17T10:17:42.037Z,33.30
2023-02-17T10:20:18.661Z,33.20
2023-02-17T10:22:57.987Z,30.90
2023-02-17T10:25:47.596Z,31.10
2023-02-17T10:28:39.206Z,33.20
2023-02-17T10:31:14.034Z,29.40
2023-02-17T10:34:00.565Z,32.80
2023-02-17T10:36:34.649Z,30.10
2023-02-17T10:39:24.978Z,29.10
2023-02-17T10:41:56.955Z,28.20
2023-02-17T10:44:27.042Z,30.40
2023-02-17T10:46:55.808Z,29.30
2023-02-17T10:49:37.647Z,27.60
2023-02-17T10:52:15.931Z,28.80
2023-02-17T10:54:53.776Z,29.60
2023-02-17T10:57:26.143Z,28.00
2023-02-17T10:59:55.740Z,26.10
2023-02-17T11:02:39.578Z,25.90
2023-02-17T11:05:20.851Z,26.60
2023-02-17T11:07:58.441Z,26.20
2023-02-17T11:10:37.571Z,26.60
2023-02-17T11:13:30.327Z,27.70
2023-02-17T11:16:00.952Z,26.00
2023-02-17T11:18:36.501Z,25.50
2023-02-17T11:21:11.522Z,24.50
2023-02-17T11:23:56.871Z,24.30
2023-02-17T11:26:28.802Z,27.00
2023-02-17T11:29:11.691Z,22.60
2023-02-17T11:31:40.428Z,22.00
2023-02-17T11:34:14.388Z,23.30
2023-02-17T11:36:46.270Z,23.30
2023-02-17T11:39:20.733Z,21.40
2023-02-17T11:41:49.651Z,19.80
2023-02-17T11:44:26.609Z,21.60
2023-02-17T11:47:27.093Z,23.70
2023-02-17T11:50:39.075Z,21.40
2023-02-17T11:53:20.451Z,20.00
2023-02-17T11:56:07.927Z,19.40
2023-02-17T11:58:51.780Z,19.20
2023-02-17T12:01:44.907Z,19.90
2023-02-17T12:04:19.571Z,18.20
2023-02-17T12:07:03.155Z,17.70
2023-02-17T12:09:44.012Z,18.20
2023-02-17T12:12:53.678Z,16.20
2023-02-17T12:15:29.627Z,17.60
2023-02-17T12:18:20.163Z,22.30
2023-02-17T12:20:51.322Z,25.40
2023-02-17T12:23:40.357Z,21.60
2023-02-17T12:26:25.136Z,20.50
2023-02-17T12:29:08.688Z,25.10
2023-02-17T12:32:08.098Z,22.50
2023-02-17T12:34:44.476Z,24.00
2023-02-17T12:37:21.616Z,20.70
2023-02-17T12:40:11.949Z,21.70
2023-02-17T12:42:45.576Z,17.60
2023-02-17T12:45:19.234Z,17.60
2023-02-17T12:48:16.292Z,16.70
2023-02-17T12:50:59.895Z,16.20
2023-02-17T12:53:50.320Z,18.30
2023-02-17T12:56:31.693Z,15.40
2023-02-17T12:59:17.090Z,15.60
2023-02-17T13:01:59.429Z,15.50
2023-02-17T13:04:31.738Z,14.70
2023-02-17T13:07:29.595Z,15.40
2023-02-17T13:09:58.807Z,14.50
2023-02-17T13:12:27.128Z,14.10
2023-02-17T13:15:02.019Z,16.70
2023-02-17T13:17:52.525Z,18.20
2023-02-17T13:20:20.689Z,15.30
2023-02-17T13:22:51.880Z,16.00
2023-02-17T13:25:32.747Z,16.00
2023-02-17T13:28:17.720Z,15.60
2023-02-17T13:30:48.767Z,15.90
2023-02-17T13:33:20.476Z,16.00
2023-02-17T13:35:49.266Z,14.20
2023-02-17T13:38:31.102Z,14.00
2023-02-17T13:41:06.702Z,14.10
2023-02-17T13:43:42.402Z,14.30
2023-02-17T13:46:19.704Z,15.20
2023-02-17T13:49:05.184Z,14.40
2023-02-17T13:51:37.640Z,13.90
2023-02-17T13:54:09.610Z,14.50
2023-02-17T13:56:38.761Z,13.40
2023-02-17T13:59:11.821Z,13.60
2023-02-17T14:01:44.258Z,14.00
2023-02-17T14:04:38.742Z,13.70
2023-02-17T14:07:07.030Z,14.00
2023-02-17T14:09:35.596Z,14.00
2023-02-17T14:12:08.476Z,13.70
2023-02-17T14:14:42.303Z,13.50
2023-02-17T14:17:33.023Z,14.30
2023-02-17T14:20:01.508Z,13.10
2023-02-17T14:22:35.924Z,13.40
2023-02-17T14:25:26.663Z,12.00
2023-02-17T14:27:56.030Z,13.00
2023-02-17T14:30:48.162Z,11.90
2023-02-17T14:33:16.688Z,11.80
2023-02-17T14:36:00.395Z,11.40
2023-02-17T14:38:32.814Z,11.60
2023-02-17T14:41:01.438Z,11.80
2023-02-17T14:43:33.037Z,11.70
2023-02-17T14:46:01.596Z,10.30
2023-02-17T14:48:30.341Z,11.10
2023-02-17T14:51:01.863Z,10.50
2023-02-17T14:53:33.506Z,11.50
2023-02-17T14:56:14.429Z,11.10
2023-02-17T14:58:43.673Z,10.80
2023-02-17T15:01:14.330Z,11.30
2023-02-17T15:03:42.815Z,9.90
2023-02-17T15:06:23.119Z,9.40
2023-02-17T15:08:52.362Z,9.90
2023-02-17T15:11:37.343Z,8.50
2023-02-17T15:14:08.151Z,9.00
2023-02-17T15:16:36.800Z,8.60
2023-02-17T15:19:05.245Z,9.70
2023-02-17T15:21:35.723Z,9.40
2023-02-17T15:24:15.117Z,8.80
2023-02-17T15:26:44.010Z,9.10
2023-02-17T15:29:16.866Z,8.50
2023-02-17T15:31:49.309Z,8.60
2023-02-17T15:34:23.828Z,9.80
2023-02-17T15:36:52.542Z,7.90
2023-02-17T15:39:22.609Z,8.70
2023-02-17T15:41:54.273Z,8.90
2023-02-17T15:44:31.588Z,8.10
2023-02-17T15:47:01.042Z,9.80
2023-02-17T15:49:29.429Z,8.80
2023-02-17T15:52:01.055Z,8.40
2023-02-17T15:54:29.844Z,8.60
2023-02-17T15:57:01.303Z,10.10
2023-02-17T15:59:31.454Z,8.90
2023-02-17T16:02:03.730Z,8.70
2023-02-17T16:04:35.821Z,8.60
2023-02-17T16:07:04.505Z,8.80
2023-02-17T16:09:35.512Z,8.40
2023-02-17T16:12:04.466Z,8.50
2023-02-17T16:14:40.520Z,8.70
2023-02-17T16:17:17.326Z,9.10
2023-02-17T16:19:45.702Z,8.50
2023-02-17T16:22:14.955Z,8.50
2023-02-17T16:24:44.056Z,8.80
2023-02-17T16:27:15.265Z,9.30
2023-02-17T16:29:44.100Z,9.50
2023-02-17T16:32:13.391Z,10.00
2023-02-17T16:34:42.096Z,9.60
2023-02-17T16:37:16.314Z,10.00
2023-02-17T16:39:45.301Z,9.70
2023-02-17T16:42:15.883Z,9.40
2023-02-17T16:44:44.696Z,10.50
2023-02-17T16:47:21.438Z,10.20
2023-02-17T16:49:50.681Z,11.60
2023-02-17T16:52:27.962Z,11.20
2023-02-17T16:54:56.187Z,11.70
2023-02-17T16:57:26.622Z,10.90
2023-02-17T16:59:56.259Z,11.30
2023-02-17T17:02:25.260Z,10.40
2023-02-17T17:04:53.576Z,13.00
2023-02-17T17:07:22.254Z,12.70
2023-02-17T17:10:14.812Z,11.90
2023-02-17T17:12:42.655Z,12.20
2023-02-17T17:15:11.625Z,11.40
2023-02-17T17:17:46.123Z,12.20
2023-02-17T17:20:24.354Z,12.30
2023-02-17T17:22:53.177Z,12.60
2023-02-17T17:25:25.350Z,12.50
2023-02-17T17:27:53.895Z,11.50
2023-02-17T17:30:25.593Z,10.80
2023-02-17T17:32:54.673Z,11.20
2023-02-17T17:35:23.520Z,11.00
2023-02-17T17:37:51.910Z,11.40
2023-02-17T17:40:24.873Z,10.50
2023-02-17T17:42:53.913Z,10.30
2023-02-17T17:45:24.707Z,10.30
2023-02-17T17:47:53.433Z,10.80
2023-02-17T17:50:25.047Z,11.00
2023-02-17T17:52:54.270Z,11.00
2023-02-17T17:55:25.567Z,10.00
2023-02-17T17:57:54.218Z,10.80
2023-02-17T18:00:30.391Z,10.10
2023-02-17T18:03:03.068Z,10.00
2023-02-17T18:05:31.929Z,10.10
2023-02-17T18:08:02.724Z,9.80
2023-02-17T18:10:32.814Z,9.90
2023-02-17T18:13:02.415Z,9.10
2023-02-17T18:15:31.266Z,9.10
2023-02-17T18:17:59.707Z,9.20
2023-02-17T18:20:28.260Z,9.10
2023-02-17T18:22:56.546Z,9.10
2023-02-17T18:25:25.561Z,9.40
2023-02-17T18:27:53.944Z,8.40
2023-02-17T18:30:23.996Z,7.40
2023-02-17T18:32:54.960Z,7.30
2023-02-17T18:35:23.235Z,7.20
2023-02-17T18:37:54.379Z,6.50
2023-02-17T18:40:23.475Z,7.40
2023-02-17T18:42:51.984Z,6.50
2023-02-17T18:45:20.409Z,6.10
2023-02-17T18:47:48.921Z,7.30
2023-02-17T18:50:17.646Z,6.30
2023-02-17T18:52:48.865Z,7.40
2023-02-17T18:55:17.591Z,6.00
2023-02-17T18:57:49.588Z,5.70
2023-02-17T19:00:19.369Z,5.70
2023-02-17T19:02:48.614Z,4.90
2023-02-17T19:05:18.193Z,4.50
2023-02-17T19:07:46.767Z,4.30
2023-02-17T19:10:15.596Z,5.10
2023-02-17T19:12:43.998Z,3.80
2023-02-17T19:15:19.749Z,3.90
2023-02-17T19:17:49.053Z,3.90
2023-02-17T19:20:17.884Z,3.20
2023-02-17T19:22:49.320Z,3.70
2023-02-17T19:25:18.363Z,4.70
2023-02-17T19:27:47.595Z,5.00
2023-02-17T19:30:16.579Z,3.90
2023-02-17T19:32:44.954Z,3.80
2023-02-17T19:35:13.510Z,4.10
2023-02-17T19:37:41.972Z,2.60
2023-02-17T19:40:10.909Z,3.60
2023-02-17T19:42:40.417Z,3.80
2023-02-17T19:45:10.382Z,3.40
2023-02-17T19:47:38.845Z,3.20
2023-02-17T19:50:08.124Z,4.50
2023-02-17T19:52:37.975Z,5.70
2023-02-17T19:55:06.600Z,2.60
2023-02-17T19:57:35.399Z,3.10
2023-02-17T20:00:05.923Z,3.70
2023-02-17T20:02:36.816Z,4.50
2023-02-17T20:05:06.094Z,6.10
2023-02-17T20:07:35.202Z,3.00
2023-02-17T20:10:05.939Z,4.80
2023-02-17T20:12:34.334Z,4.80
2023-02-17T20:15:03.089Z,4.90
2023-02-17T20:17:31.949Z,5.10
2023-02-17T20:20:00.698Z,3.20
2023-02-17T20:22:29.125Z,4.40
2023-02-17T20:25:02.821Z,5.60
2023-02-17T20:27:31.752Z,4.20
2023-02-17T20:30:01.174Z,6.30
2023-02-17T20:32:30.437Z,3.30
2023-02-17T20:34:59.500Z,5.40
2023-02-17T20:37:29.148Z,5.10
2023-02-17T20:40:03.981Z,3.40
2023-02-17T20:42:34.863Z,5.00
2023-02-17T20:45:04.200Z,3.50
2023-02-17T20:47:33.052Z,4.80
2023-02-17T20:50:01.517Z,8.60
2023-02-17T20:52:30.740Z,8.30
2023-02-17T20:55:01.900Z,7.30
2023-02-17T20:57:30.188Z,8.70
2023-02-17T20:59:59.032Z,6.00
2023-02-17T21:02:35.115Z,6.10
2023-02-17T21:05:04.066Z,6.70
2023-02-17T21:07:33.048Z,5.90
2023-02-17T21:10:02.120Z,7.70
2023-02-17T21:12:30.808Z,6.50
2023-02-17T21:14:59.210Z,8.30
2023-02-17T21:17:27.652Z,8.90
2023-02-17T21:19:56.094Z,5.60
2023-02-17T21:22:24.589Z,7.30
2023-02-17T21:24:55.892Z,8.70
2023-02-17T21:27:24.747Z,7.20
2023-02-17T21:29:53.709Z,6.30
2023-02-17T21:32:22.090Z,9.70
2023-02-17T21:34:50.685Z,8.80
2023-02-17T21:37:19.675Z,6.80
2023-02-17T21:39:48.194Z,6.60
2023-02-17T21:42:37.829Z,8.60
2023-02-17T21:45:10.463Z,8.50
2023-02-17T21:47:38.977Z,11.70
2023-02-17T21:50:08.076Z,11.80
2023-02-17T21:52:37.102Z,12.80
2023-02-17T21:55:05.771Z,7.80
2023-02-17T21:57:34.457Z,6.90
2023-02-17T22:00:06.217Z,5.50
2023-02-17T22:02:37.582Z,7.50
2023-02-17T22:05:06.877Z,8.60
2023-02-17T22:07:35.853Z,7.00
2023-02-17T22:10:07.991Z,9.90
2023-02-17T22:12:39.806Z,10.70
2023-02-17T22:15:08.866Z,6.90
2023-02-17T22:17:37.347Z,5.90
2023-02-17T22:20:06.489Z,11.20
2023-02-17T22:22:35.201Z,10.00
2023-02-17T22:25:04.038Z,10.00
2023-02-17T22:27:35.921Z,11.50
2023-02-17T22:30:06.507Z,8.60
2023-02-17T22:32:35.912Z,8.20
2023-02-17T22:35:05.924Z,10.50
2023-02-17T22:37:34.178Z,7.90
2023-02-17T22:40:04.434Z,9.90
2023-02-17T22:42:33.633Z,9.60
2023-02-17T22:45:01.963Z,7.50
2023-02-17T22:47:30.626Z,5.00
2023-02-17T22:50:00.582Z,8.10
2023-02-17T22:52:29.130Z,7.50
2023-02-17T22:54:59.357Z,8.90
2023-02-17T22:57:31.058Z,6.40
2023-02-17T22:59:59.464Z,8.80
2023-02-17T23:02:27.891Z,7.80
2023-02-17T23:04:56.258Z,10.40
2023-02-17T23:07:24.660Z,6.80
2023-02-17T23:09:53.294Z,8.90
2023-02-17T23:12:21.833Z,8.90
2023-02-17T23:14:50.116Z,9.40
2023-02-17T23:17:18.430Z,8.80
2023-02-17T23:19:50.325Z,10.20
2023-02-17T23:22:20.627Z,9.10
2023-02-17T23:24:50.551Z,8.50
2023-02-17T23:27:21.619Z,6.40
2023-02-17T23:29:49.914Z,8.50
2023-02-17T23:32:18.447Z,7.90
2023-02-17T23:34:46.680Z,7.70
2023-02-17T23:37:15.890Z,7.90
2023-02-17T23:39:45.104Z,6.40
2023-02-17T23:42:13.699Z,6.50
2023-02-17T23:44:42.671Z,9.20
2023-02-17T23:47:12.337Z,8.10
2023-02-17T23:49:41.029Z,6.10
2023-02-17T23:52:11.261Z,6.60
2023-02-17T23:54:39.659Z,5.90
2023-02-17T23:57:08.074Z,9.10
2023-02-17T23:59:40.471Z,9.80
